C75

Marshall County Airport

Lacon, Illinois, USA
METAR KC75 210935Z AUTO 00000KT 10SM CLR M23/M26 A3047 RMK AO2 T12311256
Observed Flight Rules
Jan-21 @ 09:35 UTC (11 minutes ago) Visual Flight Rules
Visibility Clouds
10 miles
  • Clear skies
Temperatures Readings
Current -23°C / -9°F
Dewpoint -26°C / -15°F
Humidity 77%
Altimeter 30.47" Hg
Pressure 1031.81 hPa
Elevation 173
METAR KC75 210935Z AUTO 00000KT 10SM CLR M23/M26 A3047 RMK AO2 T12311256
Observed Flight Rules
Jan-21 @ 09:35 UTC
(11 minutes ago)
VFR
Clouds
  • Clear skies
Temperature Dewpoint
-23°C / -9°F -26°C / -15°F
Humidity Altimeter Pressure
77% 30.47" Hg 1031.81 hPa